createdAt,value
2017-02-10T00:00:30.887Z,1021.3
2017-02-10T00:01:42.492Z,1021.34
2017-02-10T00:02:53.889Z,1021.31
2017-02-10T00:04:05.296Z,1021.34
2017-02-10T00:05:16.954Z,1021.31
2017-02-10T00:06:28.360Z,1021.33
2017-02-10T00:07:39.756Z,1021.28
2017-02-10T00:08:51.164Z,1021.23
2017-02-10T00:10:02.571Z,1021.24
2017-02-10T00:11:13.960Z,1021.2
2017-02-10T00:12:25.576Z,1021.18
2017-02-10T00:13:36.977Z,1021.19
2017-02-10T00:14:48.578Z,1021.14
2017-02-10T00:16:00.036Z,1021.17
2017-02-10T00:17:11.434Z,1021.19
2017-02-10T00:18:22.827Z,1021.12
2017-02-10T00:19:34.225Z,1021.09
2017-02-10T00:20:45.619Z,1021.12
2017-02-10T00:21:57.068Z,1021.07
2017-02-10T00:23:08.472Z,1021.06
2017-02-10T00:24:19.873Z,1021.04
2017-02-10T00:25:31.267Z,1021.03
2017-02-10T00:26:42.668Z,1021.05
2017-02-10T00:27:54.270Z,1021.06
2017-02-10T00:29:05.669Z,1021.04
2017-02-10T00:30:17.069Z,1021.03
2017-02-10T00:31:28.468Z,1021.04
2017-02-10T00:32:39.922Z,1021.04
2017-02-10T00:33:51.315Z,1020.98
2017-02-10T00:35:02.911Z,1020.99
2017-02-10T00:36:14.309Z,1021
2017-02-10T00:37:25.720Z,1021
2017-02-10T00:38:37.125Z,1020.99
2017-02-10T00:39:48.533Z,1020.98
2017-02-10T00:40:59.925Z,1020.94
2017-02-10T00:42:11.525Z,1020.95
2017-02-10T00:43:23.021Z,1020.95
2017-02-10T00:44:34.419Z,1020.93
2017-02-10T00:45:45.820Z,1020.93
2017-02-10T00:46:57.221Z,1020.83
2017-02-10T00:48:08.618Z,1020.86
2017-02-10T00:49:20.024Z,1020.88
2017-02-10T00:50:31.628Z,1020.89
2017-02-10T00:51:43.027Z,1020.87
2017-02-10T00:52:54.428Z,1020.89
2017-02-10T00:54:06.033Z,1020.82
2017-02-10T00:55:17.635Z,1020.8
2017-02-10T00:56:29.038Z,1020.82
2017-02-10T00:57:40.439Z,1020.84
2017-02-10T00:58:52.037Z,1020.84
2017-02-10T01:00:03.431Z,1020.85
2017-02-10T01:01:14.889Z,1020.84
2017-02-10T01:02:26.295Z,1020.83
2017-02-10T01:03:37.731Z,1020.78
2017-02-10T01:04:49.136Z,1020.76
2017-02-10T01:06:00.528Z,1020.77
2017-02-10T01:07:11.923Z,1020.78
2017-02-10T01:08:23.326Z,1020.76
2017-02-10T01:09:34.931Z,1020.77
2017-02-10T01:10:46.379Z,1020.76
2017-02-10T01:11:57.782Z,1020.74
2017-02-10T01:13:09.593Z,1020.76
2017-02-10T01:14:20.996Z,1020.81
2017-02-10T01:15:32.598Z,1020.76
2017-02-10T01:16:43.999Z,1020.77
2017-02-10T01:17:55.407Z,1020.78
2017-02-10T01:19:06.805Z,1020.76
2017-02-10T01:20:18.208Z,1020.73
2017-02-10T01:21:29.709Z,1020.69
2017-02-10T01:22:41.108Z,1020.69
2017-02-10T01:23:52.508Z,1020.68
2017-02-10T01:25:04.112Z,1020.71
2017-02-10T01:26:15.518Z,1020.69
2017-02-10T01:27:26.919Z,1020.7
2017-02-10T01:28:38.309Z,1020.72
2017-02-10T01:29:49.717Z,1020.69
2017-02-10T01:31:01.125Z,1020.71
2017-02-10T01:32:12.778Z,1020.7
2017-02-10T01:33:24.384Z,1020.68
2017-02-10T01:34:35.788Z,1020.65
2017-02-10T01:35:47.183Z,1020.67
2017-02-10T01:36:58.579Z,1020.7
2017-02-10T01:38:10.281Z,1020.65
2017-02-10T01:39:21.670Z,1020.64
2017-02-10T01:40:33.092Z,1020.66
2017-02-10T01:41:44.701Z,1020.6
2017-02-10T01:42:56.100Z,1020.56
2017-02-10T01:44:07.505Z,1020.61
2017-02-10T01:45:18.903Z,1020.58
2017-02-10T01:46:30.507Z,1020.55
2017-02-10T01:47:42.116Z,1020.55
2017-02-10T01:48:53.520Z,1020.49
2017-02-10T01:50:04.963Z,1020.51
2017-02-10T01:51:16.363Z,1020.48
2017-02-10T01:52:27.761Z,1020.45
2017-02-10T01:53:39.167Z,1020.49
2017-02-10T01:54:50.778Z,1020.49
2017-02-10T01:56:02.183Z,1020.46
2017-02-10T01:57:13.588Z,1020.43
2017-02-10T01:58:25.215Z,1020.43
2017-02-10T01:59:37.063Z,1020.4
2017-02-10T02:00:48.469Z,1020.41
2017-02-10T02:01:59.862Z,1020.41
2017-02-10T02:03:11.270Z,1020.4
2017-02-10T02:04:22.667Z,1020.42
2017-02-10T02:05:34.269Z,1020.36
2017-02-10T02:06:45.877Z,1020.43
2017-02-10T02:07:57.284Z,1020.37
2017-02-10T02:09:08.888Z,1020.45
2017-02-10T02:10:20.581Z,1020.41
2017-02-10T02:11:31.982Z,1020.43
2017-02-10T02:12:43.588Z,1020.43
2017-02-10T02:13:54.991Z,1020.4
2017-02-10T02:15:06.385Z,1020.4
2017-02-10T02:16:17.843Z,1020.44
2017-02-10T02:17:29.242Z,1020.43
2017-02-10T02:18:40.647Z,1020.4
2017-02-10T02:19:52.047Z,1020.44
2017-02-10T02:21:03.450Z,1020.38
2017-02-10T02:22:14.902Z,1020.36
2017-02-10T02:23:26.300Z,1020.35
2017-02-10T02:24:37.903Z,1020.36
2017-02-10T02:25:49.306Z,1020.36
2017-02-10T02:27:00.905Z,1020.33
2017-02-10T02:28:12.302Z,1020.34
2017-02-10T02:29:23.902Z,1020.36
2017-02-10T02:30:35.304Z,1020.32
2017-02-10T02:31:46.704Z,1020.35
2017-02-10T02:32:58.155Z,1020.31
2017-02-10T02:34:09.553Z,1020.33
2017-02-10T02:35:20.955Z,1020.32
2017-02-10T02:36:32.566Z,1020.29
2017-02-10T02:37:43.967Z,1020.27
2017-02-10T02:38:55.395Z,1020.26
2017-02-10T02:40:07.010Z,1020.26
2017-02-10T02:41:18.414Z,1020.26
2017-02-10T02:42:30.019Z,1020.25
2017-02-10T02:43:41.732Z,1020.23
2017-02-10T02:44:53.338Z,1020.22
2017-02-10T02:46:04.740Z,1020.25
2017-02-10T02:47:16.351Z,1020.23
2017-02-10T02:48:27.947Z,1020.25
2017-02-10T02:49:39.402Z,1020.24
2017-02-10T02:50:50.793Z,1020.23
2017-02-10T02:52:02.186Z,1020.19
2017-02-10T02:53:13.583Z,1020.17
2017-02-10T02:54:25.001Z,1020.21
2017-02-10T02:55:36.448Z,1020.17
2017-02-10T02:56:47.840Z,1020.14
2017-02-10T02:57:59.232Z,1020.13
2017-02-10T02:59:10.629Z,1020.15
2017-02-10T03:00:22.063Z,1020.14
2017-02-10T03:01:33.460Z,1020.1
2017-02-10T03:02:45.058Z,1020.07
2017-02-10T03:03:56.460Z,1020.07
2017-02-10T03:05:07.917Z,1020.06
2017-02-10T03:06:19.523Z,1020.05
2017-02-10T03:07:30.926Z,1020.01
2017-02-10T03:08:42.322Z,1019.99
2017-02-10T03:09:53.719Z,1020.01
2017-02-10T03:11:05.125Z,1019.94
2017-02-10T03:12:16.525Z,1019.95
2017-02-10T03:13:27.924Z,1019.93
2017-02-10T03:14:39.334Z,1019.9
2017-02-10T03:15:50.832Z,1019.89
2017-02-10T03:17:02.236Z,1019.85
2017-02-10T03:18:13.651Z,1019.87
2017-02-10T03:19:25.253Z,1019.81
2017-02-10T03:20:36.652Z,1019.84
2017-02-10T03:21:48.051Z,1019.83
2017-02-10T03:22:59.441Z,1019.85
2017-02-10T03:24:10.841Z,1019.82
2017-02-10T03:25:22.238Z,1019.84
2017-02-10T03:26:33.687Z,1019.84
2017-02-10T03:27:45.079Z,1019.74
2017-02-10T03:28:56.485Z,1019.72
2017-02-10T03:30:07.888Z,1019.75
2017-02-10T03:31:19.289Z,1019.69
2017-02-10T03:32:30.690Z,1019.71
2017-02-10T03:33:42.089Z,1019.7
2017-02-10T03:34:53.515Z,1019.71
2017-02-10T03:36:05.123Z,1019.68
2017-02-10T03:37:16.575Z,1019.68
2017-02-10T03:38:27.980Z,1019.69
2017-02-10T03:39:39.579Z,1019.68
2017-02-10T03:40:51.177Z,1019.7
2017-02-10T03:42:02.575Z,1019.71
2017-02-10T03:43:13.997Z,1019.72
2017-02-10T03:44:25.414Z,1019.7
2017-02-10T03:45:36.811Z,1019.69
2017-02-10T03:46:48.204Z,1019.7
2017-02-10T03:47:59.595Z,1019.73
2017-02-10T03:49:11.046Z,1019.73
2017-02-10T03:50:22.447Z,1019.72
2017-02-10T03:51:34.048Z,1019.73
2017-02-10T03:52:45.650Z,1019.82
2017-02-10T03:53:57.058Z,1019.79
2017-02-10T03:55:08.458Z,1019.79
2017-02-10T03:56:20.067Z,1019.8
2017-02-10T03:57:31.663Z,1019.83
2017-02-10T03:58:43.157Z,1019.81
2017-02-10T03:59:54.557Z,1019.77
2017-02-10T04:01:05.952Z,1019.82
2017-02-10T04:02:17.350Z,1019.74
2017-02-10T04:03:28.749Z,1019.77
2017-02-10T04:04:40.156Z,1019.74
2017-02-10T04:05:51.561Z,1019.7
2017-02-10T04:07:02.962Z,1019.72
2017-02-10T04:08:14.361Z,1019.72
2017-02-10T04:09:25.838Z,1019.66
2017-02-10T04:10:37.230Z,1019.72
2017-02-10T04:11:48.629Z,1019.72
2017-02-10T04:13:00.035Z,1019.68
2017-02-10T04:14:11.649Z,1019.68
2017-02-10T04:15:23.242Z,1019.65
2017-02-10T04:16:34.840Z,1019.65
2017-02-10T04:17:46.246Z,1019.71
2017-02-10T04:18:57.653Z,1019.68
2017-02-10T04:20:09.300Z,1019.67
2017-02-10T04:21:20.697Z,1019.63
2017-02-10T04:22:32.293Z,1019.56
2017-02-10T04:23:43.690Z,1019.58
2017-02-10T04:24:55.495Z,1019.6
2017-02-10T04:26:07.098Z,1019.57
2017-02-10T04:27:18.497Z,1019.55
2017-02-10T04:28:29.902Z,1019.52
2017-02-10T04:29:41.303Z,1019.5
2017-02-10T04:30:52.699Z,1019.54
2017-02-10T04:32:04.103Z,1019.54
2017-02-10T04:33:15.509Z,1019.55
2017-02-10T04:34:27.117Z,1019.57
2017-02-10T04:35:38.524Z,1019.57
2017-02-10T04:36:49.928Z,1019.58
2017-02-10T04:38:01.377Z,1019.55
2017-02-10T04:39:12.770Z,1019.54
2017-02-10T04:40:24.169Z,1019.56
2017-02-10T04:41:35.573Z,1019.54
2017-02-10T04:42:46.978Z,1019.53
2017-02-10T04:43:58.371Z,1019.47
2017-02-10T04:45:09.979Z,1019.53
2017-02-10T04:46:21.576Z,1019.55
2017-02-10T04:47:33.233Z,1019.51
2017-02-10T04:48:44.628Z,1019.52
2017-02-10T04:49:56.027Z,1019.49
2017-02-10T04:51:07.429Z,1019.5
2017-02-10T04:52:18.829Z,1019.5
2017-02-10T04:53:30.236Z,1019.5
2017-02-10T04:54:41.636Z,1019.49
2017-02-10T04:55:53.050Z,1019.49
2017-02-10T04:57:04.653Z,1019.52
2017-02-10T04:58:16.310Z,1019.51
2017-02-10T04:59:27.709Z,1019.55
2017-02-10T05:00:39.109Z,1019.55
2017-02-10T05:01:50.510Z,1019.56
2017-02-10T05:03:01.915Z,1019.56
2017-02-10T05:04:13.508Z,1019.58
2017-02-10T05:05:24.910Z,1019.57
2017-02-10T05:06:36.310Z,1019.51
2017-02-10T05:07:47.714Z,1019.55
2017-02-10T05:08:59.176Z,1019.55
2017-02-10T05:10:10.588Z,1019.62
2017-02-10T05:11:21.996Z,1019.53
2017-02-10T05:12:33.407Z,1019.56
2017-02-10T05:13:45.003Z,1019.56
2017-02-10T05:14:56.461Z,1019.53
2017-02-10T05:16:08.268Z,1019.52
2017-02-10T05:17:19.665Z,1019.48
2017-02-10T05:18:31.081Z,1019.46
2017-02-10T05:19:42.679Z,1019.42
2017-02-10T05:20:54.293Z,1019.48
2017-02-10T05:22:05.700Z,1019.47
2017-02-10T05:23:17.102Z,1019.53
2017-02-10T05:24:28.507Z,1019.45
2017-02-10T05:25:39.920Z,1019.41
2017-02-10T05:26:51.408Z,1019.4
2017-02-10T05:28:02.811Z,1019.41
2017-02-10T05:29:14.418Z,1019.42
2017-02-10T05:30:25.823Z,1019.46
2017-02-10T05:31:37.623Z,1019.5
2017-02-10T05:32:49.240Z,1019.49
2017-02-10T05:34:00.636Z,1019.5
2017-02-10T05:35:12.044Z,1019.48
2017-02-10T05:36:23.497Z,1019.45
2017-02-10T05:37:34.899Z,1019.44
2017-02-10T05:38:46.297Z,1019.47
2017-02-10T05:39:57.705Z,1019.42
2017-02-10T05:41:09.110Z,1019.42
2017-02-10T05:42:20.711Z,1019.39
2017-02-10T05:43:32.114Z,1019.42
2017-02-10T05:44:43.518Z,1019.48
2017-02-10T05:45:54.920Z,1019.45
2017-02-10T05:47:06.418Z,1019.49
2017-02-10T05:48:17.815Z,1019.49
2017-02-10T05:49:29.219Z,1019.53
2017-02-10T05:50:40.616Z,1019.58
2017-02-10T05:51:52.013Z,1019.6
2017-02-10T05:53:03.412Z,1019.5
2017-02-10T05:54:14.806Z,1019.52
2017-02-10T05:55:26.405Z,1019.5
2017-02-10T05:56:37.802Z,1019.53
2017-02-10T05:57:49.299Z,1019.5
2017-02-10T05:59:00.698Z,1019.47
2017-02-10T06:00:12.099Z,1019.46
2017-02-10T06:01:23.705Z,1019.45
2017-02-10T06:02:35.104Z,1019.46
2017-02-10T06:03:46.557Z,1019.4
2017-02-10T06:04:57.963Z,1019.45
2017-02-10T06:06:09.363Z,1019.41
2017-02-10T06:07:20.766Z,1019.44
2017-02-10T06:08:32.175Z,1019.42
2017-02-10T06:09:43.572Z,1019.42
2017-02-10T06:10:54.983Z,1019.43
2017-02-10T06:12:06.391Z,1019.43
2017-02-10T06:13:17.788Z,1019.46
2017-02-10T06:14:29.188Z,1019.42
2017-02-10T06:15:40.638Z,1019.43
2017-02-10T06:16:52.031Z,1019.39
2017-02-10T06:18:03.435Z,1019.47
2017-02-10T06:19:14.834Z,1019.44
2017-02-10T06:20:26.226Z,1019.4
2017-02-10T06:21:37.823Z,1019.39
2017-02-10T06:22:49.427Z,1019.37
2017-02-10T06:24:01.029Z,1019.4
2017-02-10T06:25:12.485Z,1019.38
2017-02-10T06:26:23.884Z,1019.4
2017-02-10T06:27:35.283Z,1019.4
2017-02-10T06:28:46.680Z,1019.4
2017-02-10T06:29:58.087Z,1019.38
2017-02-10T06:31:09.494Z,1019.43
2017-02-10T06:32:20.895Z,1019.44
2017-02-10T06:33:32.296Z,1019.45
2017-02-10T06:34:43.937Z,1019.45
2017-02-10T06:35:55.384Z,1019.45
2017-02-10T06:37:06.787Z,1019.51
2017-02-10T06:38:18.179Z,1019.53
2017-02-10T06:39:29.790Z,1019.49
2017-02-10T06:40:41.598Z,1019.5
2017-02-10T06:41:53.004Z,1019.52
2017-02-10T06:43:04.402Z,1019.55
2017-02-10T06:44:15.810Z,1019.55
2017-02-10T06:45:27.216Z,1019.55
2017-02-10T06:46:38.710Z,1019.56
2017-02-10T06:47:50.111Z,1019.54
2017-02-10T06:49:01.716Z,1019.49
2017-02-10T06:50:13.319Z,1019.5
2017-02-10T06:51:24.920Z,1019.5
2017-02-10T06:52:36.326Z,1019.5
2017-02-10T06:53:47.717Z,1019.52
2017-02-10T06:54:59.110Z,1019.5
2017-02-10T06:56:10.514Z,1019.54
2017-02-10T06:57:21.912Z,1019.5
2017-02-10T06:58:33.327Z,1019.49
2017-02-10T06:59:44.731Z,1019.52
2017-02-10T07:00:56.135Z,1019.51
2017-02-10T07:02:07.535Z,1019.5
2017-02-10T07:03:19.139Z,1019.49
2017-02-10T07:04:30.537Z,1019.51
2017-02-10T07:05:41.937Z,1019.48
2017-02-10T07:06:53.336Z,1019.55
2017-02-10T07:08:04.745Z,1019.56
2017-02-10T07:09:16.194Z,1019.58
2017-02-10T07:10:27.599Z,1019.59
2017-02-10T07:11:39.203Z,1019.55
2017-02-10T07:12:50.608Z,1019.56
2017-02-10T07:14:02.009Z,1019.57
2017-02-10T07:15:13.416Z,1019.55
2017-02-10T07:16:25.019Z,1019.53
2017-02-10T07:17:36.428Z,1019.54
2017-02-10T07:18:48.203Z,1019.55
2017-02-10T07:19:59.802Z,1019.57
2017-02-10T07:21:11.206Z,1019.51
2017-02-10T07:22:22.607Z,1019.55
2017-02-10T07:23:34.004Z,1019.54
2017-02-10T07:24:45.412Z,1019.5
2017-02-10T07:25:56.811Z,1019.52
2017-02-10T07:27:08.203Z,1019.47
2017-02-10T07:28:19.609Z,1019.5
2017-02-10T07:29:31.302Z,1019.46
2017-02-10T07:30:42.706Z,1019.51
2017-02-10T07:31:54.304Z,1019.5
2017-02-10T07:33:05.716Z,1019.46
2017-02-10T07:34:17.114Z,1019.44
2017-02-10T07:35:28.716Z,1019.49
2017-02-10T07:36:40.119Z,1019.47
2017-02-10T07:37:51.519Z,1019.5
2017-02-10T07:39:02.920Z,1019.48
2017-02-10T07:40:14.572Z,1019.51
2017-02-10T07:41:25.973Z,1019.53
2017-02-10T07:42:37.778Z,1019.53
2017-02-10T07:43:49.179Z,1019.53
2017-02-10T07:45:00.784Z,1019.48
2017-02-10T07:46:12.189Z,1019.51
2017-02-10T07:47:23.588Z,1019.46
2017-02-10T07:48:35.186Z,1019.5
2017-02-10T07:49:46.579Z,1019.51
2017-02-10T07:50:57.979Z,1019.47
2017-02-10T07:52:09.381Z,1019.5
2017-02-10T07:53:20.972Z,1019.45
2017-02-10T07:54:32.366Z,1019.51
2017-02-10T07:55:43.770Z,1019.49
2017-02-10T07:56:55.165Z,1019.45
2017-02-10T07:58:06.617Z,1019.49
2017-02-10T07:59:18.022Z,1019.45
2017-02-10T08:00:29.626Z,1019.47
2017-02-10T08:01:41.030Z,1019.44
2017-02-10T08:02:52.638Z,1019.45
2017-02-10T08:04:04.046Z,1019.48
2017-02-10T08:05:15.491Z,1019.43
2017-02-10T08:06:26.890Z,1019.44
2017-02-10T08:07:38.350Z,1019.46
2017-02-10T08:08:49.755Z,1019.43
2017-02-10T08:10:01.185Z,1019.45
2017-02-10T08:11:12.590Z,1019.43
2017-02-10T08:12:23.988Z,1019.4
2017-02-10T08:13:35.403Z,1019.46
2017-02-10T08:14:46.808Z,1019.42
2017-02-10T08:15:59.014Z,1019.41
2017-02-10T08:17:10.410Z,1019.4
2017-02-10T08:18:21.871Z,1019.39
2017-02-10T08:19:33.273Z,1019.39
2017-02-10T08:20:44.875Z,1019.35
2017-02-10T08:21:56.283Z,1019.39
2017-02-10T08:23:07.680Z,1019.39
2017-02-10T08:24:19.084Z,1019.38
2017-02-10T08:25:30.473Z,1019.38
2017-02-10T08:26:41.881Z,1019.42
2017-02-10T08:27:53.290Z,1019.37
2017-02-10T08:29:04.750Z,1019.41
2017-02-10T08:30:16.151Z,1019.42
2017-02-10T08:31:27.560Z,1019.41
2017-02-10T08:32:38.965Z,1019.42
2017-02-10T08:33:50.380Z,1019.38
2017-02-10T08:35:01.980Z,1019.4
2017-02-10T08:36:13.380Z,1019.34
2017-02-10T08:37:24.785Z,1019.38
2017-02-10T08:38:36.185Z,1019.39
2017-02-10T08:39:47.594Z,1019.4
2017-02-10T08:40:59.044Z,1019.35
2017-02-10T08:42:10.450Z,1019.34
2017-02-10T08:43:21.853Z,1019.3
2017-02-10T08:44:33.260Z,1019.29
2017-02-10T08:45:44.669Z,1019.31
2017-02-10T08:46:56.073Z,1019.27
2017-02-10T08:48:07.474Z,1019.27
2017-02-10T08:49:18.877Z,1019.28
2017-02-10T08:50:30.381Z,1019.27
2017-02-10T08:51:41.987Z,1019.26
2017-02-10T08:52:53.790Z,1019.28
2017-02-10T08:54:05.192Z,1019.28
2017-02-10T08:55:16.834Z,1019.23
2017-02-10T08:56:28.295Z,1019.31
2017-02-10T08:57:39.700Z,1019.28
2017-02-10T08:58:51.092Z,1019.29
2017-02-10T09:00:02.504Z,1019.28
2017-02-10T09:01:13.961Z,1019.28
2017-02-10T09:02:25.764Z,1019.27
2017-02-10T09:03:37.160Z,1019.23
2017-02-10T09:04:48.566Z,1019.32
2017-02-10T09:05:59.969Z,1019.32
2017-02-10T09:07:11.393Z,1019.31
2017-02-10T09:08:22.792Z,1019.3
2017-02-10T09:09:34.398Z,1019.32
2017-02-10T09:10:46.031Z,1019.3
2017-02-10T09:11:57.481Z,1019.31
2017-02-10T09:13:08.881Z,1019.31
2017-02-10T09:14:20.289Z,1019.29
2017-02-10T09:15:31.696Z,1019.31
2017-02-10T09:16:43.490Z,1019.23
2017-02-10T09:17:55.091Z,1019.25
2017-02-10T09:19:06.535Z,1019.27
2017-02-10T09:20:18.135Z,1019.25
2017-02-10T09:21:29.531Z,1019.3
2017-02-10T09:22:40.937Z,1019.24
2017-02-10T09:23:52.346Z,1019.26
2017-02-10T09:25:03.961Z,1019.28
2017-02-10T09:26:15.361Z,1019.23
2017-02-10T09:27:26.761Z,1019.23
2017-02-10T09:28:38.164Z,1019.29
2017-02-10T09:29:49.670Z,1019.26
2017-02-10T09:31:01.082Z,1019.32
2017-02-10T09:32:12.688Z,1019.28
2017-02-10T09:33:24.089Z,1019.31
2017-02-10T09:34:35.484Z,1019.33
2017-02-10T09:35:46.883Z,1019.31
2017-02-10T09:36:58.290Z,1019.28
2017-02-10T09:38:09.695Z,1019.3
2017-02-10T09:39:21.141Z,1019.25
2017-02-10T09:40:32.543Z,1019.33
2017-02-10T09:41:43.952Z,1019.29
2017-02-10T09:42:55.361Z,1019.31
2017-02-10T09:44:06.773Z,1019.29
2017-02-10T09:45:18.174Z,1019.24
2017-02-10T09:46:29.579Z,1019.26
2017-02-10T09:47:41.006Z,1019.27
2017-02-10T09:48:52.611Z,1019.32
2017-02-10T09:50:04.059Z,1019.3
2017-02-10T09:51:15.454Z,1019.27
2017-02-10T09:52:26.856Z,1019.19
2017-02-10T09:53:38.251Z,1019.19
2017-02-10T09:54:49.857Z,1019.2
2017-02-10T09:56:01.259Z,1019.22
2017-02-10T09:57:12.660Z,1019.24
2017-02-10T09:58:24.062Z,1019.18
2017-02-10T09:59:35.471Z,1019.19
2017-02-10T10:00:46.922Z,1019.24
2017-02-10T10:01:58.522Z,1019.23
2017-02-10T10:03:09.929Z,1019.21
2017-02-10T10:04:21.340Z,1019.2
2017-02-10T10:05:32.945Z,1019.15
2017-02-10T10:06:44.342Z,1019.19
2017-02-10T10:07:55.739Z,1019.17
2017-02-10T10:09:07.339Z,1019.13
2017-02-10T10:10:18.747Z,1019.17
2017-02-10T10:11:30.351Z,1019.17
2017-02-10T10:12:41.752Z,1019.14
2017-02-10T10:13:53.148Z,1019.18
2017-02-10T10:15:04.549Z,1019.17
2017-02-10T10:16:15.943Z,1019.18
2017-02-10T10:17:27.343Z,1019.17
2017-02-10T10:18:38.845Z,1019.15
2017-02-10T10:19:50.449Z,1019.2
2017-02-10T10:21:01.851Z,1019.23
2017-02-10T10:22:13.258Z,1019.21
2017-02-10T10:23:24.659Z,1019.17
2017-02-10T10:24:36.262Z,1019.21
2017-02-10T10:25:47.673Z,1019.22
2017-02-10T10:26:59.089Z,1019.18
2017-02-10T10:28:10.592Z,1019.2
2017-02-10T10:29:21.995Z,1019.21
2017-02-10T10:30:33.395Z,1019.16
2017-02-10T10:31:44.829Z,1019.16
2017-02-10T10:32:56.224Z,1019.15
2017-02-10T10:34:07.625Z,1019.2
2017-02-10T10:35:19.228Z,1019.23
2017-02-10T10:36:30.630Z,1019.17
2017-02-10T10:37:42.230Z,1019.22
2017-02-10T10:38:53.687Z,1019.24
2017-02-10T10:40:05.097Z,1019.25
2017-02-10T10:41:16.506Z,1019.23
2017-02-10T10:42:28.310Z,1019.23
2017-02-10T10:43:39.911Z,1019.23
2017-02-10T10:44:51.316Z,1019.24
2017-02-10T10:46:02.722Z,1019.24
2017-02-10T10:47:14.128Z,1019.21
2017-02-10T10:48:25.534Z,1019.19
2017-02-10T10:49:36.981Z,1019.16
2017-02-10T10:50:48.386Z,1019.19
2017-02-10T10:51:59.784Z,1019.17
2017-02-10T10:53:11.187Z,1019.19
2017-02-10T10:54:22.588Z,1019.22
2017-02-10T10:55:33.989Z,1019.25
2017-02-10T10:56:45.391Z,1019.22
2017-02-10T10:57:56.988Z,1019.22
2017-02-10T10:59:08.393Z,1019.19
2017-02-10T11:00:19.999Z,1019.21
2017-02-10T11:01:31.400Z,1019.21
2017-02-10T11:02:42.807Z,1019.31
2017-02-10T11:03:54.213Z,1019.23
2017-02-10T11:05:05.619Z,1019.19
2017-02-10T11:06:17.021Z,1019.14
2017-02-10T11:07:28.465Z,1019.16
2017-02-10T11:08:39.873Z,1019.12
2017-02-10T11:09:51.280Z,1019.1
2017-02-10T11:11:02.690Z,1019.13
2017-02-10T11:12:14.091Z,1019.1
2017-02-10T11:13:25.490Z,1019.03
2017-02-10T11:14:36.885Z,1018.99
2017-02-10T11:15:48.303Z,1019
2017-02-10T11:16:59.756Z,1019.03
2017-02-10T11:18:11.167Z,1019.04
2017-02-10T11:19:22.566Z,1019.01
2017-02-10T11:20:33.972Z,1019.03
2017-02-10T11:21:45.376Z,1018.99
2017-02-10T11:22:57.021Z,1019.04
2017-02-10T11:24:08.428Z,1019.03
2017-02-10T11:25:19.826Z,1019.05
2017-02-10T11:26:31.229Z,1019.01
2017-02-10T11:27:42.695Z,1018.94
2017-02-10T11:28:54.104Z,1018.95
2017-02-10T11:30:05.507Z,1018.9
2017-02-10T11:31:16.913Z,1018.92
2017-02-10T11:32:28.312Z,1018.88
2017-02-10T11:33:39.712Z,1018.89
2017-02-10T11:34:51.111Z,1018.84
2017-02-10T11:36:02.524Z,1018.9
2017-02-10T11:37:13.929Z,1018.8
2017-02-10T11:38:25.381Z,1018.81
2017-02-10T11:39:36.778Z,1018.79
2017-02-10T11:40:48.183Z,1018.84
2017-02-10T11:41:59.591Z,1018.77
2017-02-10T11:43:11.026Z,1018.77
2017-02-10T11:44:22.430Z,1018.79
2017-02-10T11:45:33.828Z,1018.78
2017-02-10T11:46:45.231Z,1018.77
2017-02-10T11:47:56.627Z,1018.78
2017-02-10T11:49:08.033Z,1018.69
2017-02-10T11:50:19.482Z,1018.77
2017-02-10T11:51:30.891Z,1018.8
2017-02-10T11:52:42.301Z,1018.75
2017-02-10T11:53:53.898Z,1018.75
2017-02-10T11:55:05.341Z,1018.71
2017-02-10T11:56:16.742Z,1018.75
2017-02-10T11:57:28.147Z,1018.71
2017-02-10T11:58:39.555Z,1018.66
2017-02-10T11:59:51.007Z,1018.72
2017-02-10T12:01:02.409Z,1018.83
2017-02-10T12:02:13.816Z,1018.72
2017-02-10T12:03:25.225Z,1018.68
2017-02-10T12:04:36.626Z,1018.7
2017-02-10T12:05:48.078Z,1018.67
2017-02-10T12:06:59.489Z,1018.65
2017-02-10T12:08:10.887Z,1018.67
2017-02-10T12:09:22.289Z,1018.66
2017-02-10T12:10:33.748Z,1018.66
2017-02-10T12:11:45.156Z,1018.64
2017-02-10T12:12:56.756Z,1018.67
2017-02-10T12:14:08.155Z,1018.64
2017-02-10T12:15:19.763Z,1018.64
2017-02-10T12:16:31.157Z,1018.67
2017-02-10T12:17:42.563Z,1018.64
2017-02-10T12:18:53.969Z,1018.7
2017-02-10T12:20:05.375Z,1018.62
2017-02-10T12:21:16.828Z,1018.63
2017-02-10T12:22:28.230Z,1018.59
2017-02-10T12:23:39.637Z,1018.57
2017-02-10T12:24:51.066Z,1018.6
2017-02-10T12:26:02.469Z,1018.6
2017-02-10T12:27:14.081Z,1018.63
2017-02-10T12:28:25.476Z,1018.62
2017-02-10T12:29:36.879Z,1018.54
2017-02-10T12:30:48.283Z,1018.56
2017-02-10T12:31:59.690Z,1018.63
2017-02-10T12:33:11.099Z,1018.68
2017-02-10T12:34:22.497Z,1018.58
2017-02-10T12:35:33.901Z,1018.58
2017-02-10T12:36:45.314Z,1018.61
2017-02-10T12:37:56.765Z,1018.62
2017-02-10T12:39:08.376Z,1018.63
2017-02-10T12:40:19.970Z,1018.61
2017-02-10T12:41:31.576Z,1018.72
2017-02-10T12:42:43.185Z,1018.67
2017-02-10T12:43:54.588Z,1018.67
2017-02-10T12:45:05.997Z,1018.68
2017-02-10T12:46:17.405Z,1018.6
2017-02-10T12:47:28.863Z,1018.64
2017-02-10T12:48:40.263Z,1018.74
2017-02-10T12:49:51.663Z,1018.74
2017-02-10T12:51:03.277Z,1018.69
2017-02-10T12:52:14.678Z,1018.7
2017-02-10T12:53:26.082Z,1018.73
2017-02-10T12:54:37.482Z,1018.69
2017-02-10T12:55:49.101Z,1018.61
2017-02-10T12:57:00.508Z,1018.65
2017-02-10T12:58:12.207Z,1018.61
2017-02-10T12:59:23.604Z,1018.62
2017-02-10T13:00:35.205Z,1018.64
2017-02-10T13:01:46.601Z,1018.56
2017-02-10T13:02:58.019Z,1018.61
2017-02-10T13:04:09.421Z,1018.59
2017-02-10T13:05:20.859Z,1018.57
2017-02-10T13:06:32.262Z,1018.6
2017-02-10T13:07:43.654Z,1018.53
2017-02-10T13:08:55.309Z,1018.47
2017-02-10T13:10:06.719Z,1018.48
2017-02-10T13:11:18.119Z,1018.46
2017-02-10T13:12:29.532Z,1018.45
2017-02-10T13:13:40.929Z,1018.47
2017-02-10T13:14:52.332Z,1018.4
2017-02-10T13:16:03.739Z,1018.4
2017-02-10T13:17:15.141Z,1018.43
2017-02-10T13:18:26.543Z,1018.4
2017-02-10T13:19:37.958Z,1018.38
2017-02-10T13:20:49.567Z,1018.42
2017-02-10T13:22:00.969Z,1018.39
2017-02-10T13:23:12.371Z,1018.34
2017-02-10T13:24:24.174Z,1018.36
2017-02-10T13:25:35.620Z,1018.42
2017-02-10T13:26:47.015Z,1018.38
2017-02-10T13:27:58.427Z,1018.38
2017-02-10T13:29:09.828Z,1018.33
2017-02-10T13:30:21.236Z,1018.34
2017-02-10T13:31:32.898Z,1018.35
2017-02-10T13:32:44.312Z,1018.33
2017-02-10T13:33:55.725Z,1018.37
2017-02-10T13:35:07.137Z,1018.44
2017-02-10T13:36:18.540Z,1018.42
2017-02-10T13:37:29.946Z,1018.41
2017-02-10T13:38:41.756Z,1018.36
2017-02-10T13:39:53.162Z,1018.38
2017-02-10T13:41:04.649Z,1018.36
2017-02-10T13:42:16.049Z,1018.32
2017-02-10T13:43:27.463Z,1018.36
2017-02-10T13:44:39.273Z,1018.36
2017-02-10T13:45:50.676Z,1018.37
2017-02-10T13:47:02.075Z,1018.34
2017-02-10T13:48:13.482Z,1018.37
2017-02-10T13:49:24.881Z,1018.38
2017-02-10T13:50:36.287Z,1018.36
2017-02-10T13:51:47.948Z,1018.39
2017-02-10T13:52:59.353Z,1018.41
2017-02-10T13:54:10.756Z,1018.38
2017-02-10T13:55:22.172Z,1018.36
2017-02-10T13:56:33.585Z,1018.34
2017-02-10T13:57:44.993Z,1018.34
2017-02-10T13:58:56.410Z,1018.36
2017-02-10T14:00:08.023Z,1018.34
2017-02-10T14:01:19.425Z,1018.42
2017-02-10T14:02:30.879Z,1018.38
2017-02-10T14:03:42.278Z,1018.33
2017-02-10T14:04:53.685Z,1018.36
2017-02-10T14:06:05.098Z,1018.41
2017-02-10T14:07:16.701Z,1018.34
2017-02-10T14:08:28.112Z,1018.38
2017-02-10T14:09:39.522Z,1018.34
2017-02-10T14:10:50.927Z,1018.35
2017-02-10T14:12:02.536Z,1018.31
2017-02-10T14:13:13.941Z,1018.29
2017-02-10T14:14:25.418Z,1018.25
2017-02-10T14:15:36.823Z,1018.24
2017-02-10T14:16:48.226Z,1018.23
2017-02-10T14:17:59.632Z,1018.18
2017-02-10T14:19:11.088Z,1018.17
2017-02-10T14:20:22.483Z,1018.12
2017-02-10T14:21:33.890Z,1018.14
2017-02-10T14:22:45.297Z,1018.1
2017-02-10T14:23:56.748Z,1018.12
2017-02-10T14:25:08.154Z,1018.1
2017-02-10T14:26:19.566Z,1018.11
2017-02-10T14:27:30.966Z,1018.14